createdAt,value
2022-08-12T00:03:20.843Z,19.20
2022-08-12T00:06:41.929Z,19.30
2022-08-12T00:10:02.564Z,19.20
2022-08-12T00:13:23.556Z,19.20
2022-08-12T00:16:49.071Z,19.20
2022-08-12T00:20:10.065Z,19.20
2022-08-12T00:23:31.755Z,19.20
2022-08-12T00:26:52.408Z,19.10
2022-08-12T00:30:12.929Z,19.20
2022-08-12T00:33:51.475Z,19.10
2022-08-12T00:37:15.042Z,18.70
2022-08-12T00:40:35.567Z,18.60
2022-08-12T00:43:37.517Z,18.70
2022-08-12T00:46:56.362Z,18.70
2022-08-12T00:49:58.991Z,18.70
2022-08-12T00:53:02.465Z,18.50
2022-08-12T00:56:06.071Z,18.50
2022-08-12T00:59:09.229Z,18.60
2022-08-12T01:02:15.839Z,18.50
2022-08-12T01:05:39.711Z,18.50
2022-08-12T01:09:00.233Z,18.50
2022-08-12T01:12:04.328Z,18.50
2022-08-12T01:15:06.483Z,18.50
2022-08-12T01:18:08.911Z,18.50
2022-08-12T01:21:55.431Z,18.40
2022-08-12T01:25:08.408Z,18.40
2022-08-12T01:28:13.553Z,18.40
2022-08-12T01:31:18.011Z,18.50
2022-08-12T01:34:36.466Z,18.50
2022-08-12T01:38:01.007Z,18.30
2022-08-12T01:41:04.811Z,18.30
2022-08-12T01:44:08.810Z,18.20
2022-08-12T01:47:32.420Z,18.10
2022-08-12T01:51:05.326Z,18.10
2022-08-12T01:54:13.907Z,18.20
2022-08-12T01:57:59.699Z,18.20
2022-08-12T02:00:55.512Z,18.00
2022-08-12T02:04:19.429Z,18.00
2022-08-12T02:08:02.349Z,18.00
2022-08-12T02:11:17.260Z,17.80
2022-08-12T02:14:31.515Z,17.90
2022-08-12T02:17:55.370Z,18.00
2022-08-12T02:21:04.288Z,17.90
2022-08-12T02:24:09.422Z,17.90
2022-08-12T02:27:13.836Z,18.10
2022-08-12T02:30:21.957Z,18.20
2022-08-12T02:33:24.827Z,18.20
2022-08-12T02:36:27.734Z,18.20
2022-08-12T02:39:34.302Z,18.10
2022-08-12T02:42:39.527Z,18.10
2022-08-12T02:45:51.172Z,18.10
2022-08-12T02:49:00.721Z,17.90
2022-08-12T02:52:03.939Z,17.80
2022-08-12T02:59:29.733Z,17.60
2022-08-12T03:02:33.384Z,17.50
2022-08-12T03:05:44.448Z,17.40
2022-08-12T03:08:53.645Z,17.50
2022-08-12T03:12:04.849Z,17.30
2022-08-12T03:15:11.453Z,17.40
2022-08-12T03:18:28.741Z,17.30
2022-08-12T03:21:55.368Z,17.10
2022-08-12T03:24:58.629Z,17.00
2022-08-12T03:28:00.422Z,17.10
2022-08-12T03:31:05.165Z,17.10
2022-08-12T03:34:09.314Z,17.00
2022-08-12T03:37:11.159Z,17.00
2022-08-12T03:40:35.678Z,16.80
2022-08-12T03:44:25.816Z,16.70
2022-08-12T03:47:51.703Z,16.90
2022-08-12T03:51:13.799Z,17.00
2022-08-12T03:54:34.269Z,17.00
2022-08-12T03:57:54.788Z,17.20
2022-08-12T04:00:58.610Z,17.00
2022-08-12T04:04:02.018Z,17.00
2022-08-12T04:07:10.574Z,17.00
2022-08-12T04:10:13.751Z,17.00
2022-08-12T04:13:25.529Z,16.60
2022-08-12T04:16:27.228Z,16.70
2022-08-12T04:19:31.201Z,16.80
2022-08-12T04:22:33.485Z,16.70
2022-08-12T04:25:39.286Z,16.70
2022-08-12T04:28:40.993Z,16.70
2022-08-12T04:31:43.954Z,16.80
2022-08-12T04:34:45.877Z,16.90
2022-08-12T04:37:59.364Z,17.00
2022-08-12T04:41:03.889Z,17.00
2022-08-12T04:44:07.053Z,16.90
2022-08-12T04:47:16.417Z,17.00
2022-08-12T04:50:27.262Z,16.80
2022-08-12T04:53:37.497Z,16.70
2022-08-12T04:56:40.354Z,16.70
2022-08-12T04:59:46.882Z,16.60
2022-08-12T05:02:50.341Z,16.90
2022-08-12T05:05:52.725Z,16.90
2022-08-12T05:08:55.855Z,16.90
2022-08-12T05:11:57.646Z,17.20
2022-08-12T05:15:00.623Z,17.20
2022-08-12T05:18:19.227Z,17.40
2022-08-12T05:21:21.932Z,17.40
2022-08-12T05:24:23.616Z,17.40
2022-08-12T05:27:26.088Z,17.40
2022-08-12T05:30:30.737Z,17.70
2022-08-12T05:33:37.911Z,17.80
2022-08-12T05:36:39.939Z,17.80
2022-08-12T05:39:42.171Z,18.00
2022-08-12T05:42:44.277Z,18.00
2022-08-12T05:45:46.653Z,18.20
2022-08-12T05:48:49.851Z,18.30
2022-08-12T05:51:51.670Z,18.40
2022-08-12T05:54:57.454Z,18.40
2022-08-12T05:58:01.596Z,18.60
2022-08-12T06:02:11.538Z,18.70
2022-08-12T06:04:25.081Z,18.80
2022-08-12T06:07:48.732Z,18.90
2022-08-12T06:10:50.155Z,18.90
2022-08-12T06:13:54.467Z,19.10
2022-08-12T06:16:56.623Z,19.10
2022-08-12T06:20:27.658Z,19.20
2022-08-12T06:23:20.459Z,19.30
2022-08-12T06:26:22.409Z,19.40
2022-08-12T06:30:07.113Z,19.50
2022-08-12T06:33:04.138Z,19.50
2022-08-12T06:36:09.436Z,19.70
2022-08-12T06:39:14.679Z,19.80
2022-08-12T06:42:35.632Z,19.90
2022-08-12T06:45:45.295Z,20.00
2022-08-12T06:48:49.935Z,20.10
2022-08-12T06:51:56.654Z,20.20
2022-08-12T06:54:59.869Z,20.20
2022-08-12T06:58:07.396Z,20.30
2022-08-12T07:01:12.229Z,20.40
2022-08-12T07:04:35.699Z,20.40
2022-08-12T07:07:38.844Z,20.60
2022-08-12T07:10:47.222Z,20.70
2022-08-12T07:14:11.953Z,20.90
2022-08-12T07:17:15.030Z,21.10
2022-08-12T07:20:42.659Z,21.30
2022-08-12T07:23:41.627Z,21.30
2022-08-12T07:26:44.664Z,21.60
2022-08-12T07:29:57.839Z,21.80
2022-08-12T07:33:09.002Z,21.90
2022-08-12T07:36:13.938Z,22.40
2022-08-12T07:39:15.837Z,22.40
2022-08-12T07:42:18.807Z,22.40
2022-08-12T07:45:21.745Z,22.40
2022-08-12T07:48:24.808Z,22.40
2022-08-12T07:51:27.118Z,22.50
2022-08-12T07:54:28.850Z,22.50
2022-08-12T07:57:33.924Z,22.50
2022-08-12T08:00:40.162Z,22.70
2022-08-12T08:04:02.591Z,22.90
2022-08-12T08:07:07.791Z,23.10
2022-08-12T08:10:11.434Z,23.20
2022-08-12T08:13:13.618Z,23.40
2022-08-12T08:16:15.863Z,23.60
2022-08-12T08:19:23.453Z,23.70
2022-08-12T08:22:40.826Z,23.80
2022-08-12T08:25:45.396Z,24.00
2022-08-12T08:28:47.064Z,24.10
2022-08-12T08:31:54.175Z,24.20
2022-08-12T08:34:55.920Z,24.80
2022-08-12T08:38:13.599Z,25.10
2022-08-12T08:42:16.163Z,24.90
2022-08-12T08:45:01.240Z,25.20
2022-08-12T08:48:04.282Z,25.80
2022-08-12T08:51:06.162Z,26.30
2022-08-12T08:54:12.481Z,26.20
2022-08-12T08:57:14.180Z,26.40
2022-08-12T09:00:18.463Z,26.30
2022-08-12T09:05:07.199Z,26.20
2022-08-12T09:06:53.734Z,26.30
2022-08-12T09:14:10.999Z,26.50
2022-08-12T09:16:50.765Z,26.80
2022-08-12T09:19:58.050Z,27.30
2022-08-12T09:23:01.577Z,27.90
2022-08-12T09:26:09.737Z,28.10
2022-08-12T09:29:13.954Z,28.10
2022-08-12T09:32:56.289Z,28.30
2022-08-12T09:35:44.229Z,28.10
2022-08-12T09:38:58.924Z,28.40
2022-08-12T09:42:33.583Z,28.30
2022-08-12T09:46:20.249Z,28.50
2022-08-12T09:49:13.511Z,28.70
2022-08-12T09:52:19.087Z,29.30
2022-08-12T09:56:06.176Z,29.30
2022-08-12T09:59:00.042Z,29.60
2022-08-12T10:02:44.899Z,29.80
2022-08-12T10:06:20.184Z,30.20
2022-08-12T10:08:52.326Z,30.80
2022-08-12T10:12:13.739Z,30.50
2022-08-12T10:16:02.122Z,30.50
2022-08-12T10:18:51.595Z,30.60
2022-08-12T10:21:56.951Z,30.90
2022-08-12T10:25:18.219Z,31.30
2022-08-12T10:28:38.904Z,31.30
2022-08-12T10:31:58.620Z,31.70
2022-08-12T10:35:03.407Z,32.00
2022-08-12T10:38:34.939Z,31.90
2022-08-12T10:41:58.435Z,31.90
2022-08-12T10:45:03.789Z,31.90
2022-08-12T10:48:20.412Z,32.20
2022-08-12T10:52:02.699Z,32.60
2022-08-12T10:54:53.937Z,32.20
2022-08-12T10:58:14.231Z,31.50
2022-08-12T11:01:50.567Z,31.40
2022-08-12T11:04:49.120Z,31.50
2022-08-12T11:08:35.055Z,31.30
2022-08-12T11:12:08.260Z,31.10
2022-08-12T11:14:49.115Z,31.40
2022-08-12T11:17:54.972Z,31.10
2022-08-12T11:20:59.250Z,31.00
2022-08-12T11:24:01.708Z,30.80
2022-08-12T11:27:10.858Z,30.60
2022-08-12T11:30:31.272Z,30.40
2022-08-12T11:34:05.234Z,30.10
2022-08-12T11:36:58.538Z,30.10
2022-08-12T11:40:00.283Z,29.90
2022-08-12T11:43:19.743Z,29.60
2022-08-12T11:46:22.196Z,29.50
2022-08-12T11:49:31.328Z,29.50
2022-08-12T11:52:55.914Z,29.40
2022-08-12T11:55:55.987Z,29.30
2022-08-12T12:02:21.569Z,29.30
2022-08-12T12:05:39.341Z,29.40
2022-08-12T12:08:43.381Z,29.30
2022-08-12T12:11:49.702Z,29.10
2022-08-12T12:14:54.449Z,29.30
2022-08-12T12:17:57.244Z,29.30
2022-08-12T12:21:04.060Z,29.40
2022-08-12T12:24:06.149Z,29.30
2022-08-12T12:27:08.829Z,29.30
2022-08-12T12:30:19.470Z,29.20
2022-08-12T12:33:57.052Z,29.20
2022-08-12T12:36:54.955Z,29.30
2022-08-12T12:40:00.001Z,29.40
2022-08-12T12:43:04.997Z,29.30
2022-08-12T12:46:08.787Z,29.40
2022-08-12T12:49:10.886Z,29.50
2022-08-12T12:52:18.905Z,29.40
2022-08-12T12:55:24.214Z,29.30
2022-08-12T12:58:34.417Z,29.30
2022-08-12T13:01:41.821Z,29.20
2022-08-12T13:04:43.909Z,29.20
2022-08-12T13:07:54.997Z,29.30
2022-08-12T13:11:04.488Z,29.30
2022-08-12T13:14:10.291Z,29.40
2022-08-12T13:17:19.860Z,29.30
2022-08-12T13:20:37.845Z,29.30
2022-08-12T13:23:45.656Z,29.40
2022-08-12T13:26:49.723Z,29.40
2022-08-12T13:29:52.232Z,29.50
2022-08-12T13:32:58.768Z,29.40
2022-08-12T13:36:06.320Z,29.40
2022-08-12T13:39:09.813Z,29.30
2022-08-12T13:42:14.554Z,29.30
2022-08-12T13:45:16.796Z,29.40
2022-08-12T13:48:19.695Z,29.30
2022-08-12T13:51:24.490Z,29.30
2022-08-12T13:54:26.405Z,29.40
2022-08-12T13:57:47.079Z,29.50
2022-08-12T14:00:52.568Z,29.60
2022-08-12T14:03:54.688Z,29.60
2022-08-12T14:06:56.425Z,29.50
2022-08-12T14:10:16.819Z,29.50
2022-08-12T14:14:03.926Z,29.50
2022-08-12T14:16:51.205Z,29.50
2022-08-12T14:20:12.659Z,29.40
2022-08-12T14:24:01.318Z,29.60
2022-08-12T14:26:39.126Z,29.50
2022-08-12T14:30:04.291Z,29.60
2022-08-12T14:33:11.046Z,29.40
2022-08-12T14:36:13.776Z,29.40
2022-08-12T14:39:17.443Z,29.50
2022-08-12T14:42:20.054Z,29.50
2022-08-12T14:45:22.959Z,29.40
2022-08-12T14:48:25.297Z,29.60
2022-08-12T14:52:43.230Z,29.60
2022-08-12T14:58:13.933Z,29.30
2022-08-12T15:01:34.093Z,29.40
2022-08-12T15:04:35.994Z,29.40
2022-08-12T15:07:52.256Z,29.50
2022-08-12T15:11:03.000Z,29.50
2022-08-12T15:14:06.165Z,29.40
2022-08-12T15:17:08.215Z,29.50
2022-08-12T15:20:32.470Z,29.40
2022-08-12T15:23:54.858Z,29.50
2022-08-12T15:26:57.539Z,29.40
2022-08-12T15:30:00.758Z,29.40
2022-08-12T15:33:12.327Z,29.40
2022-08-12T15:36:19.509Z,29.40
2022-08-12T15:39:39.759Z,29.40
2022-08-12T15:42:59.551Z,29.40
2022-08-12T15:46:01.781Z,29.30
2022-08-12T15:49:03.933Z,29.20
2022-08-12T15:52:28.399Z,29.20
2022-08-12T15:55:33.741Z,29.30
2022-08-12T15:58:38.353Z,29.30
2022-08-12T16:01:41.543Z,29.30
2022-08-12T16:04:43.295Z,29.30
2022-08-12T16:07:51.064Z,29.30
2022-08-12T16:10:53.073Z,29.30
2022-08-12T16:13:55.051Z,29.30
2022-08-12T16:16:57.692Z,29.30
2022-08-12T16:20:03.921Z,29.20
2022-08-12T16:23:26.448Z,29.20
2022-08-12T16:26:36.549Z,29.20
2022-08-12T16:29:52.255Z,29.10
2022-08-12T16:32:56.551Z,29.10
2022-08-12T16:35:58.950Z,29.00
2022-08-12T16:39:03.371Z,29.00
2022-08-12T16:42:05.377Z,29.00
2022-08-12T16:45:09.435Z,29.00
2022-08-12T16:48:33.874Z,28.90
2022-08-12T16:51:40.240Z,28.90
2022-08-12T16:54:44.254Z,28.90
2022-08-12T16:57:48.564Z,28.90
2022-08-12T17:00:51.905Z,28.80
2022-08-12T17:04:09.106Z,28.80
2022-08-12T17:07:19.617Z,29.30
2022-08-12T17:10:35.981Z,28.70
2022-08-12T17:13:42.848Z,28.70
2022-08-12T17:16:55.952Z,28.70
2022-08-12T17:20:34.675Z,28.70
2022-08-12T17:23:47.897Z,28.60
2022-08-12T17:26:53.726Z,28.60
2022-08-12T17:30:03.010Z,28.50
2022-08-12T17:33:07.036Z,28.50
2022-08-12T17:36:10.472Z,28.40
2022-08-12T17:39:12.797Z,28.30
2022-08-12T17:42:34.719Z,28.40
2022-08-12T17:45:42.148Z,28.40
2022-08-12T17:48:55.039Z,28.50
2022-08-12T17:52:02.592Z,28.80
2022-08-12T17:55:40.866Z,28.40
2022-08-12T17:58:36.896Z,28.10
2022-08-12T18:01:45.282Z,27.90
2022-08-12T18:05:05.263Z,27.70
2022-08-12T18:08:11.013Z,27.80
2022-08-12T18:12:04.696Z,27.60
2022-08-12T18:15:01.307Z,27.50
2022-08-12T18:18:05.737Z,27.40
2022-08-12T18:21:18.977Z,27.30
2022-08-12T18:24:22.500Z,27.00
2022-08-12T18:27:44.511Z,26.90
2022-08-12T18:30:52.496Z,26.90
2022-08-12T18:34:00.699Z,26.90
2022-08-12T18:37:16.385Z,26.70
2022-08-12T18:40:46.018Z,26.70
2022-08-12T18:44:05.117Z,26.60
2022-08-12T18:47:10.312Z,26.50
2022-08-12T18:50:15.324Z,26.40
2022-08-12T18:54:05.609Z,26.40
2022-08-12T18:56:42.283Z,26.20
2022-08-12T19:00:00.816Z,26.00
2022-08-12T19:03:06.161Z,26.00
2022-08-12T19:06:28.105Z,25.80
2022-08-12T19:09:39.154Z,25.70
2022-08-12T19:13:24.342Z,25.60
2022-08-12T19:16:27.917Z,25.50
2022-08-12T19:19:37.208Z,25.30
2022-08-12T19:22:43.870Z,25.10
2022-08-12T19:26:04.354Z,24.90
2022-08-12T19:29:08.339Z,24.60
2022-08-12T19:32:12.413Z,24.70
2022-08-12T19:38:38.116Z,24.80
2022-08-12T19:42:00.448Z,24.60
2022-08-12T19:45:05.075Z,24.40
2022-08-12T19:48:17.309Z,24.50
2022-08-12T19:51:37.846Z,24.40
2022-08-12T19:54:44.048Z,24.50
2022-08-12T19:58:01.906Z,24.40
2022-08-12T20:01:10.802Z,24.40
2022-08-12T20:04:13.657Z,24.20
2022-08-12T20:07:23.496Z,23.00
2022-08-12T20:10:35.405Z,23.90
2022-08-12T20:13:38.515Z,23.90
2022-08-12T20:16:51.693Z,24.00
2022-08-12T20:20:16.935Z,23.90
2022-08-12T20:23:50.275Z,23.70
2022-08-12T20:26:50.391Z,23.70
2022-08-12T20:29:54.606Z,23.60
2022-08-12T20:32:57.876Z,23.60
2022-08-12T20:36:13.483Z,23.50
2022-08-12T20:39:51.976Z,23.40
2022-08-12T20:42:45.588Z,23.40
2022-08-12T20:45:57.454Z,23.30
2022-08-12T20:49:14.790Z,23.20
2022-08-12T20:52:19.309Z,23.10
2022-08-12T20:55:21.225Z,23.00
2022-08-12T20:58:23.229Z,22.90
2022-08-12T21:01:29.225Z,22.80
2022-08-12T21:05:16.430Z,22.70
2022-08-12T21:08:26.271Z,22.60
2022-08-12T21:11:28.016Z,22.50
2022-08-12T21:14:39.709Z,22.40
2022-08-12T21:18:11.378Z,22.20
2022-08-12T21:21:46.967Z,22.20
2022-08-12T21:24:50.111Z,22.00
2022-08-12T21:27:58.832Z,22.00
2022-08-12T21:32:36.168Z,21.90
2022-08-12T21:34:29.105Z,21.70
2022-08-12T21:37:31.770Z,21.70
2022-08-12T21:40:52.587Z,21.70
2022-08-12T21:43:55.020Z,21.70
2022-08-12T21:47:21.024Z,21.60
2022-08-12T21:50:29.211Z,21.50
2022-08-12T21:53:31.606Z,21.50
2022-08-12T21:56:53.609Z,21.50
2022-08-12T21:59:55.581Z,21.30
2022-08-12T22:03:17.209Z,21.10
2022-08-12T22:06:43.273Z,20.90
2022-08-12T22:09:46.169Z,21.10
2022-08-12T22:12:47.935Z,21.00
2022-08-12T22:15:52.546Z,20.80
2022-08-12T22:18:56.947Z,20.90
2022-08-12T22:22:03.875Z,20.80
2022-08-12T22:25:09.776Z,20.90
2022-08-12T22:28:39.019Z,20.90
2022-08-12T22:31:41.103Z,21.00
2022-08-12T22:34:44.498Z,20.90
2022-08-12T22:37:46.466Z,20.80
2022-08-12T22:40:53.866Z,20.80
2022-08-12T22:44:14.847Z,20.70
2022-08-12T22:47:53.715Z,20.60
2022-08-12T22:50:57.595Z,20.70
2022-08-12T22:54:01.138Z,20.60
2022-08-12T22:57:02.997Z,20.40
2022-08-12T23:00:10.118Z,20.40
2022-08-12T23:03:47.095Z,20.30
2022-08-12T23:06:50.397Z,20.10
2022-08-12T23:09:54.906Z,20.10
2022-08-12T23:13:15.481Z,20.00
2022-08-12T23:16:29.265Z,20.00
2022-08-12T23:19:38.448Z,20.00
2022-08-12T23:22:56.100Z,20.10
2022-08-12T23:26:04.660Z,20.10
2022-08-12T23:29:29.599Z,20.10
2022-08-12T23:32:37.384Z,20.20
2022-08-12T23:35:53.696Z,20.10
2022-08-12T23:39:03.845Z,19.80
2022-08-12T23:42:17.547Z,19.70
2022-08-12T23:45:32.016Z,19.50
2022-08-12T23:48:37.402Z,19.40
2022-08-12T23:51:39.460Z,19.50
2022-08-12T23:54:44.912Z,19.30
2022-08-12T23:58:17.462Z,19.50
